Normandy, United Kingdom
Current Conditions -  °F | °C
As of 8:20 AM on Saturday 22 Nov 2014 (Local Time) from EGLF Reporting Station
Haze Haze  
Wind Chill: 54°   Ceiling: 800
Heat Index: 54°   Visibility: 2.7mi
Dew Point: 54°   Wind: 6mph
Humidity: 100%   Direction: 170°S
Pressure: 29.88"   Gusts: NA
Location:  51.26°N, 0.67°W
Report Text: EGLF 220820Z 17005KT 4400 BR BKN008 12/12 Q1012
Loading
Personal Weather Stations






























Interactive Weather Map New forecast layout! Learn more

10-Day Weather Forecast

Advertisements
Track Severe Weather on mobile